Aguanish, Canada
Current Conditions -  °F | °C
As of 8:00 AM on Monday 20 Oct 2014 (Local Time) from CYNA Reporting Station
Light Rain Light Rain  
Wind Chill: 36°   Ceiling: 3100
Heat Index: 41°   Visibility: 8mi
Dew Point: 39°   Wind: 7mph
Humidity: 93%   Direction: 300°WNW
Pressure: 29.39"   Gusts: NA
Location:  50.22°N, 62.08°W
Report Text: CYNA 201100Z AUTO 30006KT 8SM -RA BKN031 OVC060 05/04 A2939 RMK PCPN 0.5MM PAST HR SLP953
Loading
Personal Weather Stations






























Interactive Weather Map
Tropical Storm Tracking
New forecast layout! Learn more

10-Day Weather Forecast

Advertisements
Track Severe Weather on mobile